createdAt,value
2022-10-07T00:13:41.436Z,18.20
2022-10-07T00:28:46.377Z,18.30
2022-10-07T00:43:50.785Z,18.00
2022-10-07T00:58:55.337Z,17.90
2022-10-07T01:14:11.803Z,17.70
2022-10-07T01:29:19.677Z,17.70
2022-10-07T01:44:26.468Z,17.20
2022-10-07T01:59:55.545Z,17.20
2022-10-07T02:15:03.955Z,17.40
2022-10-07T02:30:12.178Z,17.20
2022-10-07T02:45:24.503Z,17.20
2022-10-07T03:00:34.485Z,17.20
2022-10-07T03:15:42.576Z,16.90
2022-10-07T03:30:53.838Z,17.00
2022-10-07T03:46:00.547Z,16.90
2022-10-07T04:01:10.369Z,17.00
2022-10-07T04:16:18.526Z,16.70
2022-10-07T04:31:23.803Z,17.00
2022-10-07T04:46:34.941Z,16.80
2022-10-07T05:01:46.345Z,16.80
2022-10-07T05:16:51.049Z,16.60
2022-10-07T05:32:04.522Z,16.70
2022-10-07T05:47:10.394Z,16.70
2022-10-07T06:02:17.184Z,16.50
2022-10-07T06:17:23.065Z,16.70
2022-10-07T06:32:32.657Z,16.70
2022-10-07T06:47:38.738Z,16.70
2022-10-07T07:02:44.919Z,16.70
2022-10-07T07:17:49.968Z,16.40
2022-10-07T07:32:55.435Z,16.80
2022-10-07T07:48:00.291Z,17.00
2022-10-07T08:03:05.376Z,17.00
2022-10-07T08:18:10.660Z,17.10
2022-10-07T08:33:15.288Z,17.30
2022-10-07T08:48:25.137Z,17.50
2022-10-07T09:03:43.664Z,17.70
2022-10-07T09:18:53.475Z,17.90
2022-10-07T09:33:57.829Z,18.00
2022-10-07T09:49:04.444Z,18.20
2022-10-07T10:04:16.849Z,18.60
2022-10-07T10:19:25.767Z,18.90
2022-10-07T10:34:41.013Z,19.40
2022-10-07T10:49:54.250Z,19.90
2022-10-07T11:05:03.055Z,20.50
2022-10-07T11:20:18.417Z,20.70
2022-10-07T11:35:28.556Z,21.10
2022-10-07T11:50:38.043Z,21.10
2022-10-07T12:06:07.541Z,21.00
2022-10-07T12:21:12.325Z,20.90
2022-10-07T12:36:29.892Z,21.00
2022-10-07T12:51:39.646Z,21.20
2022-10-07T13:07:27.878Z,21.30
2022-10-07T13:22:32.472Z,21.60
2022-10-07T13:37:38.722Z,22.00
2022-10-07T13:52:47.066Z,22.10
2022-10-07T14:07:55.580Z,22.70
2022-10-07T14:23:01.587Z,24.60
2022-10-07T14:38:28.432Z,26.40
2022-10-07T14:53:33.262Z,27.20
2022-10-07T15:08:37.607Z,27.30
2022-10-07T15:23:42.076Z,27.80
2022-10-07T15:38:46.970Z,27.80
2022-10-07T15:53:51.361Z,26.40
2022-10-07T16:08:57.969Z,26.00
2022-10-07T16:24:04.523Z,24.20
2022-10-07T16:39:09.672Z,22.80
2022-10-07T16:54:16.424Z,22.10
2022-10-07T17:09:21.889Z,21.80
2022-10-07T17:24:26.605Z,21.80
2022-10-07T17:39:31.192Z,21.40
2022-10-07T17:54:37.784Z,21.10
2022-10-07T18:09:42.150Z,21.10
2022-10-07T18:24:46.828Z,21.10
2022-10-07T18:39:51.332Z,20.80
2022-10-07T18:54:55.762Z,20.50
2022-10-07T19:10:00.131Z,20.60
2022-10-07T19:25:22.232Z,19.70
2022-10-07T19:40:26.693Z,19.40
2022-10-07T19:55:32.678Z,19.60
2022-10-07T20:10:39.485Z,19.70
2022-10-07T20:25:45.676Z,19.80
2022-10-07T20:41:11.089Z,19.80
2022-10-07T20:56:16.363Z,19.50
2022-10-07T21:11:21.125Z,19.00
2022-10-07T21:26:25.962Z,19.40
2022-10-07T21:41:34.093Z,19.40
2022-10-07T21:56:38.429Z,18.80
2022-10-07T22:11:42.690Z,18.80
2022-10-07T22:26:48.435Z,18.70
2022-10-07T22:41:53.177Z,18.90
2022-10-07T22:56:57.588Z,19.00
2022-10-07T23:12:01.953Z,18.60
2022-10-07T23:27:06.239Z,18.20
2022-10-07T23:42:10.588Z,18.00
2022-10-07T23:57:14.909Z,18.30
